sensor_id;sensor_type;location;lat;lon;timestamp;P1;durP1;ratioP1;P2;durP2;ratioP2
8279;SDS011;8335;42.646;23.380;2023-07-31T00:01:07;3.97;;;3.58;;
8279;SDS011;8335;42.646;23.380;2023-07-31T00:03:34;4.20;;;3.80;;
8279;SDS011;8335;42.646;23.380;2023-07-31T00:06:01;4.30;;;3.90;;
8279;SDS011;8335;42.646;23.380;2023-07-31T00:08:29;3.53;;;3.22;;
8279;SDS011;8335;42.646;23.380;2023-07-31T00:10:56;3.95;;;3.65;;
8279;SDS011;8335;42.646;23.380;2023-07-31T00:13:22;4.80;;;3.60;;
8279;SDS011;8335;42.646;23.380;2023-07-31T00:15:49;3.85;;;3.42;;
8279;SDS011;8335;42.646;23.380;2023-07-31T00:18:16;3.95;;;3.53;;
8279;SDS011;8335;42.646;23.380;2023-07-31T00:20:43;4.13;;;3.67;;
8279;SDS011;8335;42.646;23.380;2023-07-31T00:23:09;3.67;;;3.35;;
8279;SDS011;8335;42.646;23.380;2023-07-31T00:25:38;6.25;;;3.60;;
8279;SDS011;8335;42.646;23.380;2023-07-31T00:28:04;4.55;;;3.72;;
8279;SDS011;8335;42.646;23.380;2023-07-31T00:30:31;4.32;;;3.70;;
8279;SDS011;8335;42.646;23.380;2023-07-31T00:32:58;4.63;;;3.75;;
8279;SDS011;8335;42.646;23.380;2023-07-31T00:35:25;3.97;;;3.55;;
8279;SDS011;8335;42.646;23.380;2023-07-31T00:37:51;4.20;;;3.67;;
8279;SDS011;8335;42.646;23.380;2023-07-31T00:40:18;4.13;;;3.72;;
8279;SDS011;8335;42.646;23.380;2023-07-31T00:42:46;4.25;;;3.85;;
8279;SDS011;8335;42.646;23.380;2023-07-31T00:45:13;5.03;;;4.07;;
8279;SDS011;8335;42.646;23.380;2023-07-31T00:47:40;4.40;;;4.00;;
8279;SDS011;8335;42.646;23.380;2023-07-31T00:50:07;4.10;;;3.80;;
8279;SDS011;8335;42.646;23.380;2023-07-31T00:52:35;4.40;;;4.00;;
8279;SDS011;8335;42.646;23.380;2023-07-31T00:55:02;4.55;;;4.13;;
8279;SDS011;8335;42.646;23.380;2023-07-31T00:57:30;5.05;;;4.47;;
8279;SDS011;8335;42.646;23.380;2023-07-31T01:00:00;5.65;;;4.63;;
8279;SDS011;8335;42.646;23.380;2023-07-31T01:02:28;5.88;;;5.00;;
8279;SDS011;8335;42.646;23.380;2023-07-31T01:04:55;5.30;;;4.80;;
8279;SDS011;8335;42.646;23.380;2023-07-31T01:07:23;6.25;;;5.47;;
8279;SDS011;8335;42.646;23.380;2023-07-31T01:09:58;6.82;;;6.15;;
8279;SDS011;8335;42.646;23.380;2023-07-31T01:12:30;6.20;;;5.65;;
8279;SDS011;8335;42.646;23.380;2023-07-31T01:15:06;7.45;;;6.68;;
8279;SDS011;8335;42.646;23.380;2023-07-31T01:17:36;7.45;;;6.72;;
8279;SDS011;8335;42.646;23.380;2023-07-31T01:20:03;7.30;;;6.60;;
8279;SDS011;8335;42.646;23.380;2023-07-31T01:22:42;7.85;;;6.93;;
8279;SDS011;8335;42.646;23.380;2023-07-31T01:25:43;8.18;;;7.38;;
8279;SDS011;8335;42.646;23.380;2023-07-31T01:28:25;9.20;;;8.05;;
8279;SDS011;8335;42.646;23.380;2023-07-31T01:30:59;9.95;;;9.00;;
8279;SDS011;8335;42.646;23.380;2023-07-31T01:33:28;10.32;;;9.25;;
8279;SDS011;8335;42.646;23.380;2023-07-31T01:35:55;10.65;;;9.57;;
8279;SDS011;8335;42.646;23.380;2023-07-31T01:38:22;10.70;;;9.55;;
8279;SDS011;8335;42.646;23.380;2023-07-31T01:40:52;11.25;;;10.05;;
8279;SDS011;8335;42.646;23.380;2023-07-31T01:43:19;12.82;;;11.13;;
8279;SDS011;8335;42.646;23.380;2023-07-31T01:45:46;13.07;;;11.65;;
